»·PEaware :: WWW99 KLAS-KLAX

WWW99 :: KLAS-KLAX

FLIGHT INFORMATION

Flight Status: Arrived
Operator: Unknown
More flights by this operator :: More flights under this callsign
Pilot: Anonymous 30260 (30260)
Aircraft: BOEING 737-300
(B733)
More flights by this aircraft type
Origin: KLAS McCarran Intl
United States
Destination: KLAX Los Angeles Intl
United States
More flights between these airports :: More routes between these airports
Route: RADYR1 BLAQQ SHTNR ANJLL4
File this flight plan on PilotEdge
Remarks: RMK / SIMBRIEF
Altitude:
(Current/Filed)
34,000ft
Speed:
(Current/Filed)
426kts
Departed: 07-Mar-21 08:12 PM
Arrived: 07-Mar-21 08:57 PM
Distance/Time
Traveled:
205nm/0:45
Distance/Time
To Go:
Arrived

Flight Plot

Page will automatically refresh every two minutes.

Flight plan parsing failed; only flown route is shown


Map Options




Map Legend


Flown Route
Filed Route
Departure Airport
Arrival Airport
Navaid (VOR, NDB)
Fix

Horizontal Profiles

Position Reports

Time Latitude Longitude Heading Altitude Ground
Speed
07-Mar-21 19:47 36.085957 -115.168304 91 2157ft 0kts
07-Mar-21 19:48 36.085957 -115.168304 91 2157ft 0kts
07-Mar-21 19:49 36.085957 -115.168304 91 2157ft 0kts
07-Mar-21 19:50 36.085957 -115.168304 91 2157ft 0kts
07-Mar-21 19:51 36.085957 -115.168304 91 2157ft 0kts
07-Mar-21 19:52 36.085957 -115.168304 91 2157ft 0kts
07-Mar-21 19:53 36.085957 -115.168304 91 2157ft 0kts
07-Mar-21 19:54 36.085957 -115.168304 91 2157ft 0kts
07-Mar-21 19:55 36.085957 -115.168304 91 2157ft 0kts
07-Mar-21 19:56 36.085957 -115.168304 91 2157ft 0kts
07-Mar-21 19:57 36.085957 -115.168304 91 2157ft 0kts
07-Mar-21 19:58 36.085957 -115.168304 91 2157ft 0kts
07-Mar-21 19:59 36.085957 -115.168304 91 2157ft 0kts
07-Mar-21 20:00 36.085957 -115.168304 91 2157ft 0kts
07-Mar-21 20:01 36.085957 -115.168304 91 2157ft 0kts
07-Mar-21 20:02 36.085957 -115.168304 91 2157ft 0kts
07-Mar-21 20:03 36.085957 -115.168304 91 2157ft 0kts
07-Mar-21 20:05 36.085957 -115.168304 91 2157ft 0kts
07-Mar-21 20:06 36.085957 -115.168304 91 2157ft 0kts
07-Mar-21 20:07 36.085833 -115.167641 116 2155ft 0kts
07-Mar-21 20:08 36.087358 -115.165879 25 2145ft 18kts
07-Mar-21 20:09 36.093211 -115.162531 25 2117ft 25kts
07-Mar-21 20:10 36.098805 -115.159330 24 2097ft 16kts
07-Mar-21 20:11 36.097823 -115.157507 204 2091ft 18kts
07-Mar-21 20:12 36.069165 -115.174303 203 2799ft 174kts
07-Mar-21 20:13 36.021297 -115.198975 202 5336ft 208kts
07-Mar-21 20:14 35.965842 -115.226005 199 8252ft 230kts
07-Mar-21 20:15 35.899283 -115.256610 200 10586ft 287kts
07-Mar-21 20:16 35.818988 -115.292983 201 13714ft 311kts
07-Mar-21 20:17 35.736826 -115.330159 201 16936ft 318kts
07-Mar-21 20:18 35.652818 -115.368089 202 19811ft 326kts
07-Mar-21 20:19 35.562459 -115.384919 181 22294ft 343kts
07-Mar-21 20:20 35.465772 -115.377443 182 24559ft 351kts
07-Mar-21 20:21 35.377204 -115.416157 210 26633ft 344kts
07-Mar-21 20:22 35.294475 -115.469656 210 29137ft 332kts
07-Mar-21 20:23 35.211884 -115.522381 210 30856ft 334kts
07-Mar-21 20:24 35.130864 -115.573921 211 32788ft 322kts
07-Mar-21 20:25 35.053536 -115.626582 223 34024ft 318kts
07-Mar-21 20:26 35.002167 -115.722433 235 34026ft 349kts
07-Mar-21 20:26 34.949183 -115.801210 227 34038ft 369kts
07-Mar-21 20:28 34.866508 -115.909257 227 34061ft 370kts
07-Mar-21 20:29 34.795525 -116.000276 227 34072ft 371kts
07-Mar-21 20:30 34.720278 -116.085667 229 34082ft 371kts
07-Mar-21 20:30 34.661835 -116.162705 228 33756ft 371kts
07-Mar-21 20:32 34.578838 -116.269673 227 32601ft 376kts
07-Mar-21 20:33 34.506658 -116.362342 227 31342ft 377kts
07-Mar-21 20:33 34.446951 -116.438799 227 30089ft 372kts
07-Mar-21 20:34 34.390230 -116.541194 242 28493ft 369kts
07-Mar-21 20:36 34.337572 -116.669676 241 26591ft 362kts
07-Mar-21 20:36 34.301300 -116.759861 241 25256ft 356kts
07-Mar-21 20:37 34.258462 -116.866334 241 23659ft 349kts
07-Mar-21 20:38 34.216051 -116.971401 241 22055ft 345kts
07-Mar-21 20:39 34.185062 -117.079755 249 20469ft 343kts
07-Mar-21 20:40 34.155594 -117.188183 249 18880ft 339kts
07-Mar-21 20:41 34.126545 -117.293832 250 17308ft 335kts
07-Mar-21 20:42 34.097953 -117.400078 252 15547ft 331kts
07-Mar-21 20:43 34.071743 -117.503086 247 13328ft 309kts
07-Mar-21 20:44 34.041092 -117.591131 246 12625ft 275kts
07-Mar-21 20:45 34.011745 -117.675593 248 11784ft 272kts
07-Mar-21 20:46 34.001168 -117.765737 261 10813ft 271kts
07-Mar-21 20:47 33.992605 -117.854020 261 9178ft 255kts
07-Mar-21 20:48 33.984732 -117.934506 261 7749ft 236kts
07-Mar-21 20:49 33.977043 -118.012605 261 5957ft 233kts
07-Mar-21 20:50 33.970440 -118.085951 261 4977ft 206kts
07-Mar-21 20:51 33.964155 -118.153201 261 4028ft 205kts
07-Mar-21 20:52 33.956099 -118.222248 260 2777ft 206kts
07-Mar-21 20:53 33.949448 -118.285471 263 1683ft 155kts
07-Mar-21 20:54 33.944534 -118.334065 262 856ft 134kts
07-Mar-21 20:55 33.940065 -118.378434 261 230ft 129kts
07-Mar-21 20:56 33.936989 -118.408023 262 125ft 35kts
07-Mar-21 20:57 33.937508 -118.412738 44 125ft 6kts
07-Mar-21 20:58 33.939731 -118.411780 353 122ft 16kts
07-Mar-21 20:59 33.941001 -118.410701 81 123ft 0kts
07-Mar-21 21:00 33.941001 -118.410701 81 123ft 0kts

Navigation Log

Ident Type
Flight plan parsing failed, navigation log unavailable